sensor_id;sensor_type;location;lat;lon;timestamp;temperature;humidity
2757;DHT22;1386;50.862;6.494;2022-11-15T02:22:33;10.90;99.90
2757;DHT22;1386;50.862;6.494;2022-11-15T08:07:54;10.70;99.90
2757;DHT22;1386;50.862;6.494;2022-11-15T08:10:21;10.70;99.90
2757;DHT22;1386;50.862;6.494;2022-11-15T08:12:54;10.70;99.90
2757;DHT22;1386;50.862;6.494;2022-11-15T08:15:22;10.70;99.90
2757;DHT22;1386;50.862;6.494;2022-11-15T08:17:53;10.70;99.90
2757;DHT22;1386;50.862;6.494;2022-11-15T08:20:20;10.70;99.90
2757;DHT22;1386;50.862;6.494;2022-11-15T08:22:48;10.70;99.90
2757;DHT22;1386;50.862;6.494;2022-11-15T08:25:15;10.70;99.90
2757;DHT22;1386;50.862;6.494;2022-11-15T08:27:42;10.70;99.90
2757;DHT22;1386;50.862;6.494;2022-11-15T08:30:10;10.80;99.90
2757;DHT22;1386;50.862;6.494;2022-11-15T08:32:37;10.80;99.90
2757;DHT22;1386;50.862;6.494;2022-11-15T08:35:05;10.90;99.90
2757;DHT22;1386;50.862;6.494;2022-11-15T08:37:32;10.90;99.90
2757;DHT22;1386;50.862;6.494;2022-11-15T08:40:00;11.00;99.90
2757;DHT22;1386;50.862;6.494;2022-11-15T08:42:27;11.00;99.90
2757;DHT22;1386;50.862;6.494;2022-11-15T08:44:54;11.10;99.90
2757;DHT22;1386;50.862;6.494;2022-11-15T08:47:21;11.10;99.90
2757;DHT22;1386;50.862;6.494;2022-11-15T08:49:48;11.20;99.90
2757;DHT22;1386;50.862;6.494;2022-11-15T08:52:15;11.30;99.90
2757;DHT22;1386;50.862;6.494;2022-11-15T08:54:42;11.30;99.90
2757;DHT22;1386;50.862;6.494;2022-11-15T08:57:10;11.40;99.90
2757;DHT22;1386;50.862;6.494;2022-11-15T08:59:37;11.50;99.90
2757;DHT22;1386;50.862;6.494;2022-11-15T09:02:16;11.60;99.90
2757;DHT22;1386;50.862;6.494;2022-11-15T09:08:25;12.00;99.90
2757;DHT22;1386;50.862;6.494;2022-11-15T09:10:54;12.20;99.90
2757;DHT22;1386;50.862;6.494;2022-11-15T09:13:34;12.50;99.90
2757;DHT22;1386;50.862;6.494;2022-11-15T09:16:12;12.60;99.90
2757;DHT22;1386;50.862;6.494;2022-11-15T09:18:40;12.80;99.90
2757;DHT22;1386;50.862;6.494;2022-11-15T09:21:08;12.90;99.90
2757;DHT22;1386;50.862;6.494;2022-11-15T09:23:35;12.80;99.90
2757;DHT22;1386;50.862;6.494;2022-11-15T09:26:05;12.80;99.90
2757;DHT22;1386;50.862;6.494;2022-11-15T09:28:34;12.80;99.90
2757;DHT22;1386;50.862;6.494;2022-11-15T09:31:03;12.70;99.90
2757;DHT22;1386;50.862;6.494;2022-11-15T09:33:33;12.80;99.90
2757;DHT22;1386;50.862;6.494;2022-11-15T09:36:09;12.90;99.90
2757;DHT22;1386;50.862;6.494;2022-11-15T09:38:43;12.90;99.90
2757;DHT22;1386;50.862;6.494;2022-11-15T09:41:48;13.00;99.90
2757;DHT22;1386;50.862;6.494;2022-11-15T09:44:35;13.00;99.90
2757;DHT22;1386;50.862;6.494;2022-11-15T09:47:28;13.00;99.90
2757;DHT22;1386;50.862;6.494;2022-11-15T09:50:09;13.00;99.90
2757;DHT22;1386;50.862;6.494;2022-11-15T09:52:36;13.10;99.90
2757;DHT22;1386;50.862;6.494;2022-11-15T09:55:08;13.10;99.90
2757;DHT22;1386;50.862;6.494;2022-11-15T09:57:40;13.20;99.90
2757;DHT22;1386;50.862;6.494;2022-11-15T10:00:16;13.20;99.90
2757;DHT22;1386;50.862;6.494;2022-11-15T10:02:56;13.20;99.90
2757;DHT22;1386;50.862;6.494;2022-11-15T10:05:26;13.20;99.90
2757;DHT22;1386;50.862;6.494;2022-11-15T10:07:59;13.20;99.90
2757;DHT22;1386;50.862;6.494;2022-11-15T10:10:33;13.20;99.90
2757;DHT22;1386;50.862;6.494;2022-11-15T10:13:01;13.30;99.90
2757;DHT22;1386;50.862;6.494;2022-11-15T10:15:30;13.40;99.90
2757;DHT22;1386;50.862;6.494;2022-11-15T10:18:16;13.50;99.90
2757;DHT22;1386;50.862;6.494;2022-11-15T10:20:50;13.60;99.90
2757;DHT22;1386;50.862;6.494;2022-11-15T10:23:19;13.60;99.90
2757;DHT22;1386;50.862;6.494;2022-11-15T10:25:47;13.70;99.90
2757;DHT22;1386;50.862;6.494;2022-11-15T10:28:21;13.70;99.90
2757;DHT22;1386;50.862;6.494;2022-11-15T10:30:52;13.70;99.90
2757;DHT22;1386;50.862;6.494;2022-11-15T10:33:26;13.70;99.90
2757;DHT22;1386;50.862;6.494;2022-11-15T10:36:22;13.80;99.90
2757;DHT22;1386;50.862;6.494;2022-11-15T10:38:56;13.80;99.90
2757;DHT22;1386;50.862;6.494;2022-11-15T10:41:31;13.80;99.90
2757;DHT22;1386;50.862;6.494;2022-11-15T10:44:19;13.80;99.90
2757;DHT22;1386;50.862;6.494;2022-11-15T10:46:50;13.90;99.90
2757;DHT22;1386;50.862;6.494;2022-11-15T10:49:31;13.90;99.90
2757;DHT22;1386;50.862;6.494;2022-11-15T10:52:02;14.00;99.90
2757;DHT22;1386;50.862;6.494;2022-11-15T10:54:37;14.20;99.90
2757;DHT22;1386;50.862;6.494;2022-11-15T10:57:07;14.30;99.90
2757;DHT22;1386;50.862;6.494;2022-11-15T10:59:36;14.30;99.90
2757;DHT22;1386;50.862;6.494;2022-11-15T11:02:28;14.40;99.90
2757;DHT22;1386;50.862;6.494;2022-11-15T11:04:56;14.40;99.90
2757;DHT22;1386;50.862;6.494;2022-11-15T11:07:27;14.40;99.90
2757;DHT22;1386;50.862;6.494;2022-11-15T11:10:21;14.40;99.90
2757;DHT22;1386;50.862;6.494;2022-11-15T11:12:52;14.20;99.90
2757;DHT22;1386;50.862;6.494;2022-11-15T11:15:47;14.20;99.90
2757;DHT22;1386;50.862;6.494;2022-11-15T11:40:16;14.20;99.90
2757;DHT22;1386;50.862;6.494;2022-11-15T11:42:53;14.20;99.90
2757;DHT22;1386;50.862;6.494;2022-11-15T11:45:33;14.10;99.90
2757;DHT22;1386;50.862;6.494;2022-11-15T11:48:11;14.10;99.90
2757;DHT22;1386;50.862;6.494;2022-11-15T11:50:39;14.10;99.90
2757;DHT22;1386;50.862;6.494;2022-11-15T11:53:12;14.10;99.90
2757;DHT22;1386;50.862;6.494;2022-11-15T11:55:44;14.10;99.90
2757;DHT22;1386;50.862;6.494;2022-11-15T11:58:15;14.20;99.90
2757;DHT22;1386;50.862;6.494;2022-11-15T12:00:47;14.20;99.90
2757;DHT22;1386;50.862;6.494;2022-11-15T12:03:22;14.20;99.90
2757;DHT22;1386;50.862;6.494;2022-11-15T12:05:54;14.20;99.90
2757;DHT22;1386;50.862;6.494;2022-11-15T12:08:35;14.20;99.90
2757;DHT22;1386;50.862;6.494;2022-11-15T12:11:12;14.20;99.90
2757;DHT22;1386;50.862;6.494;2022-11-15T12:13:41;14.20;99.90
2757;DHT22;1386;50.862;6.494;2022-11-15T12:16:14;14.20;99.90
2757;DHT22;1386;50.862;6.494;2022-11-15T12:18:46;14.20;99.90
2757;DHT22;1386;50.862;6.494;2022-11-15T12:21:19;14.10;99.90
2757;DHT22;1386;50.862;6.494;2022-11-15T12:23:49;14.10;99.90
2757;DHT22;1386;50.862;6.494;2022-11-15T12:26:22;14.10;99.90
2757;DHT22;1386;50.862;6.494;2022-11-15T12:28:53;14.10;99.90
2757;DHT22;1386;50.862;6.494;2022-11-15T12:31:24;14.10;99.90
2757;DHT22;1386;50.862;6.494;2022-11-15T12:33:56;14.00;99.90
2757;DHT22;1386;50.862;6.494;2022-11-15T12:36:35;14.10;99.90
2757;DHT22;1386;50.862;6.494;2022-11-15T12:39:13;14.10;99.90
2757;DHT22;1386;50.862;6.494;2022-11-15T12:45:25;14.10;99.90
2757;DHT22;1386;50.862;6.494;2022-11-15T12:54:57;14.10;99.90
2757;DHT22;1386;50.862;6.494;2022-11-15T12:57:40;14.10;99.90
2757;DHT22;1386;50.862;6.494;2022-11-15T13:03:28;14.00;99.90
2757;DHT22;1386;50.862;6.494;2022-11-15T13:06:10;14.00;99.90
2757;DHT22;1386;50.862;6.494;2022-11-15T13:08:59;14.00;99.90
2757;DHT22;1386;50.862;6.494;2022-11-15T13:11:50;14.00;99.90
2757;DHT22;1386;50.862;6.494;2022-11-15T13:25:02;14.00;99.90
2757;DHT22;1386;50.862;6.494;2022-11-15T13:27:43;14.10;99.90
2757;DHT22;1386;50.862;6.494;2022-11-15T13:30:14;14.10;99.90
2757;DHT22;1386;50.862;6.494;2022-11-15T13:33:00;14.10;99.90
2757;DHT22;1386;50.862;6.494;2022-11-15T20:14:12;12.20;99.90
2757;DHT22;1386;50.862;6.494;2022-11-15T20:16:39;12.20;99.90
2757;DHT22;1386;50.862;6.494;2022-11-15T20:19:06;12.20;99.90
2757;DHT22;1386;50.862;6.494;2022-11-15T20:21:33;12.20;99.90
2757;DHT22;1386;50.862;6.494;2022-11-15T20:24:01;12.20;99.90
2757;DHT22;1386;50.862;6.494;2022-11-15T20:26:27;12.20;99.90
2757;DHT22;1386;50.862;6.494;2022-11-15T20:28:56;12.20;99.90
2757;DHT22;1386;50.862;6.494;2022-11-15T20:31:28;12.20;99.90
2757;DHT22;1386;50.862;6.494;2022-11-15T20:33:55;12.20;99.90
2757;DHT22;1386;50.862;6.494;2022-11-15T20:36:22;12.20;99.90
2757;DHT22;1386;50.862;6.494;2022-11-15T20:38:49;12.20;99.90
2757;DHT22;1386;50.862;6.494;2022-11-15T20:41:22;12.20;99.90
2757;DHT22;1386;50.862;6.494;2022-11-15T20:43:49;12.20;99.90
2757;DHT22;1386;50.862;6.494;2022-11-15T20:46:17;12.10;99.90
2757;DHT22;1386;50.862;6.494;2022-11-15T20:48:48;12.10;99.90
2757;DHT22;1386;50.862;6.494;2022-11-15T20:51:17;12.00;99.90
2757;DHT22;1386;50.862;6.494;2022-11-15T20:54:16;12.00;99.90
2757;DHT22;1386;50.862;6.494;2022-11-15T20:56:43;11.90;99.90
2757;DHT22;1386;50.862;6.494;2022-11-15T20:59:15;11.90;99.90
2757;DHT22;1386;50.862;6.494;2022-11-15T21:04:55;11.90;99.90
2757;DHT22;1386;50.862;6.494;2022-11-15T21:07:25;11.90;99.90
2757;DHT22;1386;50.862;6.494;2022-11-15T21:10:02;11.90;99.90
2757;DHT22;1386;50.862;6.494;2022-11-15T21:12:46;11.90;99.90
2757;DHT22;1386;50.862;6.494;2022-11-15T21:15:41;11.80;99.90
2757;DHT22;1386;50.862;6.494;2022-11-15T21:18:10;11.80;99.90
2757;DHT22;1386;50.862;6.494;2022-11-15T21:20:47;11.80;99.90
2757;DHT22;1386;50.862;6.494;2022-11-15T21:48:40;11.60;99.90
2757;DHT22;1386;50.862;6.494;2022-11-15T21:51:11;11.60;99.90
2757;DHT22;1386;50.862;6.494;2022-11-15T21:53:41;11.60;99.90
2757;DHT22;1386;50.862;6.494;2022-11-15T21:56:23;11.50;99.90
2757;DHT22;1386;50.862;6.494;2022-11-15T21:58:57;11.50;99.90
2757;DHT22;1386;50.862;6.494;2022-11-15T22:01:25;11.50;99.90
2757;DHT22;1386;50.862;6.494;2022-11-15T22:04:15;11.50;99.90
2757;DHT22;1386;50.862;6.494;2022-11-15T22:06:42;11.50;99.90
2757;DHT22;1386;50.862;6.494;2022-11-15T22:09:09;11.50;99.90
2757;DHT22;1386;50.862;6.494;2022-11-15T22:11:45;11.50;99.90
2757;DHT22;1386;50.862;6.494;2022-11-15T22:14:14;11.50;99.90
2757;DHT22;1386;50.862;6.494;2022-11-15T22:16:44;11.50;99.90
2757;DHT22;1386;50.862;6.494;2022-11-15T22:19:11;11.50;99.90
2757;DHT22;1386;50.862;6.494;2022-11-15T22:21:49;11.50;99.90
2757;DHT22;1386;50.862;6.494;2022-11-15T22:24:22;11.50;99.90
2757;DHT22;1386;50.862;6.494;2022-11-15T22:26:51;11.50;99.90
2757;DHT22;1386;50.862;6.494;2022-11-15T22:29:28;11.40;99.90
2757;DHT22;1386;50.862;6.494;2022-11-15T22:32:12;11.40;99.90
2757;DHT22;1386;50.862;6.494;2022-11-15T22:34:42;11.40;99.90
2757;DHT22;1386;50.862;6.494;2022-11-15T22:37:16;11.40;99.90
2757;DHT22;1386;50.862;6.494;2022-11-15T22:39:55;11.40;99.90
2757;DHT22;1386;50.862;6.494;2022-11-15T22:42:22;11.40;99.90
2757;DHT22;1386;50.862;6.494;2022-11-15T22:48:07;11.40;99.90
2757;DHT22;1386;50.862;6.494;2022-11-15T22:50:51;11.40;99.90
2757;DHT22;1386;50.862;6.494;2022-11-15T22:53:25;11.40;99.90
2757;DHT22;1386;50.862;6.494;2022-11-15T22:55:54;11.40;99.90
2757;DHT22;1386;50.862;6.494;2022-11-15T22:58:23;11.40;99.90
2757;DHT22;1386;50.862;6.494;2022-11-15T23:00:56;11.30;99.90
2757;DHT22;1386;50.862;6.494;2022-11-15T23:03:25;11.30;99.90
2757;DHT22;1386;50.862;6.494;2022-11-15T23:06:00;11.30;99.90
2757;DHT22;1386;50.862;6.494;2022-11-15T23:08:40;11.30;99.90
2757;DHT22;1386;50.862;6.494;2022-11-15T23:11:17;11.40;99.90
2757;DHT22;1386;50.862;6.494;2022-11-15T23:14:04;11.40;99.90
2757;DHT22;1386;50.862;6.494;2022-11-15T23:16:37;11.30;99.90
2757;DHT22;1386;50.862;6.494;2022-11-15T23:19:06;11.30;99.90
2757;DHT22;1386;50.862;6.494;2022-11-15T23:21:40;11.30;99.90
2757;DHT22;1386;50.862;6.494;2022-11-15T23:24:29;11.30;99.90
2757;DHT22;1386;50.862;6.494;2022-11-15T23:27:07;11.30;99.90
2757;DHT22;1386;50.862;6.494;2022-11-15T23:29:35;11.30;99.90
2757;DHT22;1386;50.862;6.494;2022-11-15T23:32:23;11.30;99.90
2757;DHT22;1386;50.862;6.494;2022-11-15T23:35:09;11.30;99.90
2757;DHT22;1386;50.862;6.494;2022-11-15T23:37:38;11.30;99.90
2757;DHT22;1386;50.862;6.494;2022-11-15T23:40:08;11.30;99.90
2757;DHT22;1386;50.862;6.494;2022-11-15T23:42:35;11.30;99.90
2757;DHT22;1386;50.862;6.494;2022-11-15T23:45:06;11.30;99.90
2757;DHT22;1386;50.862;6.494;2022-11-15T23:47:33;11.30;99.90
2757;DHT22;1386;50.862;6.494;2022-11-15T23:50:07;11.30;99.90
2757;DHT22;1386;50.862;6.494;2022-11-15T23:52:37;11.30;99.90
2757;DHT22;1386;50.862;6.494;2022-11-15T23:55:17;11.30;99.90
2757;DHT22;1386;50.862;6.494;2022-11-15T23:57:49;11.30;99.90
